createdAt,value
2017-10-10T00:01:18.471Z,13.60
2017-10-10T00:03:46.436Z,13.60
2017-10-10T00:06:13.904Z,13.60
2017-10-10T00:08:41.377Z,13.60
2017-10-10T00:11:08.849Z,13.60
2017-10-10T00:13:37.071Z,13.50
2017-10-10T00:16:04.549Z,13.50
2017-10-10T00:18:32.021Z,13.50
2017-10-10T00:20:59.693Z,13.50
2017-10-10T00:23:27.185Z,13.50
2017-10-10T00:25:55.430Z,13.50
2017-10-10T00:28:23.650Z,13.50
2017-10-10T00:30:51.129Z,13.50
2017-10-10T00:33:18.617Z,13.60
2017-10-10T00:35:46.851Z,13.60
2017-10-10T00:38:14.334Z,13.60
2017-10-10T00:40:41.795Z,13.60
2017-10-10T00:43:09.311Z,13.60
2017-10-10T00:45:36.765Z,13.60
2017-10-10T00:48:04.252Z,13.60
2017-10-10T00:50:31.712Z,13.60
2017-10-10T00:52:59.978Z,13.60
2017-10-10T00:55:27.464Z,13.60
2017-10-10T00:57:55.692Z,13.60
2017-10-10T01:00:23.182Z,13.60
2017-10-10T01:02:50.676Z,13.60
2017-10-10T01:05:18.941Z,13.60
2017-10-10T01:07:47.167Z,13.60
2017-10-10T01:10:14.629Z,13.50
2017-10-10T01:12:42.117Z,13.60
2017-10-10T01:15:09.662Z,13.60
2017-10-10T01:17:37.145Z,13.60
2017-10-10T01:20:05.381Z,13.60
2017-10-10T01:22:32.851Z,13.50
2017-10-10T01:25:00.339Z,13.60
2017-10-10T01:27:28.570Z,13.50
2017-10-10T01:29:56.048Z,13.50
2017-10-10T01:32:23.513Z,13.60
2017-10-10T01:34:51.874Z,13.50
2017-10-10T01:37:19.354Z,13.50
2017-10-10T01:39:47.597Z,13.50
2017-10-10T01:42:15.081Z,13.40
2017-10-10T01:44:43.333Z,13.40
2017-10-10T01:47:10.801Z,13.50
2017-10-10T01:49:38.271Z,13.40
2017-10-10T01:52:06.518Z,13.40
2017-10-10T01:54:34.006Z,13.40
2017-10-10T01:57:02.389Z,13.40
2017-10-10T01:59:30.617Z,13.40
2017-10-10T02:01:58.263Z,13.40
2017-10-10T02:04:25.715Z,13.50
2017-10-10T02:06:53.174Z,13.50
2017-10-10T02:09:20.651Z,13.50
2017-10-10T02:11:48.614Z,13.50
2017-10-10T02:14:16.065Z,13.50
2017-10-10T02:16:43.549Z,13.50
2017-10-10T02:19:11.021Z,13.50
2017-10-10T02:21:38.509Z,13.50
2017-10-10T02:24:05.980Z,13.60
2017-10-10T02:26:33.459Z,13.60
2017-10-10T02:29:00.954Z,13.60
2017-10-10T02:31:29.180Z,13.60
2017-10-10T02:33:56.663Z,13.60
2017-10-10T02:36:24.123Z,13.60
2017-10-10T02:38:51.612Z,13.50
2017-10-10T02:41:19.833Z,13.60
2017-10-10T02:43:47.314Z,13.50
2017-10-10T02:46:14.792Z,13.50
2017-10-10T02:48:43.030Z,13.50
2017-10-10T02:51:10.490Z,13.50
2017-10-10T02:53:37.976Z,13.50
2017-10-10T02:56:06.234Z,13.50
2017-10-10T02:58:35.225Z,13.50
2017-10-10T03:01:02.696Z,13.50
2017-10-10T03:03:30.188Z,13.50
2017-10-10T03:05:57.724Z,13.50
2017-10-10T03:08:25.973Z,13.50
2017-10-10T03:10:53.457Z,13.50
2017-10-10T03:13:21.703Z,13.50
2017-10-10T03:15:49.157Z,13.50
2017-10-10T03:18:16.653Z,13.50
2017-10-10T03:20:44.901Z,13.40
2017-10-10T03:23:12.376Z,13.40
2017-10-10T03:25:40.613Z,13.40
2017-10-10T03:28:08.093Z,13.40
2017-10-10T03:30:35.556Z,13.40
2017-10-10T03:33:03.047Z,13.40
2017-10-10T03:35:30.495Z,13.40
2017-10-10T03:37:57.958Z,13.40
2017-10-10T03:40:25.444Z,13.30
2017-10-10T03:42:52.912Z,13.30
2017-10-10T03:45:20.390Z,13.30
2017-10-10T03:47:47.852Z,13.30
2017-10-10T03:50:16.109Z,13.30
2017-10-10T03:52:43.571Z,13.30
2017-10-10T03:55:11.074Z,13.30
2017-10-10T03:57:38.552Z,13.20
2017-10-10T04:00:06.030Z,13.20
2017-10-10T04:02:33.484Z,13.20
2017-10-10T04:05:01.017Z,13.20
2017-10-10T04:07:28.500Z,13.20
2017-10-10T04:09:55.975Z,13.20
2017-10-10T04:12:23.460Z,13.20
2017-10-10T04:14:51.690Z,13.20
2017-10-10T04:17:19.172Z,13.20
2017-10-10T04:19:46.642Z,13.20
2017-10-10T04:22:14.893Z,13.20
2017-10-10T04:24:42.370Z,13.20
2017-10-10T04:27:10.633Z,13.20
2017-10-10T04:29:38.873Z,13.20
2017-10-10T04:32:06.358Z,13.20
2017-10-10T04:34:34.626Z,13.20
2017-10-10T04:37:02.582Z,13.20
2017-10-10T04:39:30.051Z,13.20
2017-10-10T04:41:57.583Z,13.20
2017-10-10T04:44:25.057Z,13.20
2017-10-10T04:46:52.557Z,13.30
2017-10-10T04:49:20.846Z,13.20
2017-10-10T04:51:49.090Z,13.20
2017-10-10T04:54:18.338Z,13.20
2017-10-10T04:56:45.965Z,13.20
2017-10-10T04:59:14.219Z,13.20
2017-10-10T05:01:41.696Z,13.20
2017-10-10T05:04:09.917Z,13.20
2017-10-10T05:06:37.423Z,13.20
2017-10-10T05:09:04.878Z,13.10
2017-10-10T05:11:32.358Z,13.10
2017-10-10T05:13:59.816Z,13.10
2017-10-10T05:16:28.081Z,13.10
2017-10-10T05:18:56.309Z,13.10
2017-10-10T05:21:23.805Z,13.10
2017-10-10T05:23:52.023Z,13.10
2017-10-10T05:26:19.502Z,13.10
2017-10-10T05:28:46.962Z,13.10
2017-10-10T05:31:14.463Z,13.00
2017-10-10T05:33:42.718Z,13.00
2017-10-10T05:36:10.183Z,13.00
2017-10-10T05:38:38.436Z,13.10
2017-10-10T05:41:05.896Z,13.00
2017-10-10T05:43:33.406Z,13.00
2017-10-10T05:46:00.887Z,13.00
2017-10-10T05:48:28.424Z,13.00
2017-10-10T05:50:55.898Z,13.00
2017-10-10T05:53:23.376Z,13.00
2017-10-10T05:55:50.888Z,13.10
2017-10-10T05:58:18.933Z,13.10
2017-10-10T06:00:47.184Z,13.10
2017-10-10T06:03:14.646Z,13.00
2017-10-10T06:05:42.125Z,13.10
2017-10-10T06:08:10.390Z,13.10
2017-10-10T06:10:37.869Z,13.10
2017-10-10T06:13:05.365Z,13.10
2017-10-10T06:15:32.854Z,13.10
2017-10-10T06:18:01.098Z,13.20
2017-10-10T06:20:28.558Z,13.10
2017-10-10T06:22:56.032Z,13.20
2017-10-10T06:25:23.502Z,13.20
2017-10-10T06:27:51.756Z,13.30
2017-10-10T06:30:19.225Z,13.30
2017-10-10T06:32:47.477Z,13.30
2017-10-10T06:35:14.987Z,13.30
2017-10-10T06:37:43.238Z,13.40
2017-10-10T06:40:11.544Z,13.40
2017-10-10T06:42:39.789Z,13.40
2017-10-10T06:45:07.309Z,13.40
2017-10-10T06:47:34.974Z,13.40
2017-10-10T06:50:02.465Z,13.40
2017-10-10T06:52:29.924Z,13.40
2017-10-10T06:54:57.573Z,13.40
2017-10-10T06:57:25.043Z,13.50
2017-10-10T06:59:53.304Z,13.50
2017-10-10T07:02:20.777Z,13.50
2017-10-10T07:04:48.262Z,13.50
2017-10-10T07:07:15.766Z,13.50
2017-10-10T07:09:43.500Z,13.50
2017-10-10T07:12:10.988Z,13.50
2017-10-10T07:14:38.454Z,13.60
2017-10-10T07:17:05.945Z,13.60
2017-10-10T07:19:34.178Z,13.60
2017-10-10T07:22:01.670Z,13.60
2017-10-10T07:24:30.380Z,13.70
2017-10-10T07:26:57.841Z,13.60
2017-10-10T07:29:25.315Z,13.70
2017-10-10T07:31:52.789Z,13.70
2017-10-10T07:34:20.268Z,13.80
2017-10-10T07:36:47.802Z,13.80
2017-10-10T07:39:15.281Z,13.80
2017-10-10T07:41:42.744Z,13.80
2017-10-10T07:44:11.106Z,13.80
2017-10-10T07:46:38.569Z,13.80
2017-10-10T07:49:06.826Z,13.80
2017-10-10T07:51:34.298Z,13.80
2017-10-10T07:54:01.793Z,13.90
2017-10-10T07:56:29.273Z,13.90
2017-10-10T07:58:56.744Z,13.90
2017-10-10T08:01:24.233Z,13.90
2017-10-10T08:03:51.693Z,13.90
2017-10-10T08:06:19.254Z,13.90
2017-10-10T08:08:47.482Z,13.90
2017-10-10T08:11:14.966Z,13.90
2017-10-10T08:13:42.594Z,13.90
2017-10-10T08:16:10.137Z,14.00
2017-10-10T08:18:37.628Z,14.00
2017-10-10T08:21:05.090Z,14.10
2017-10-10T08:23:32.579Z,14.10
2017-10-10T08:26:05.580Z,14.00
2017-10-10T08:28:33.841Z,14.00
2017-10-10T08:31:01.307Z,14.00
2017-10-10T08:33:29.557Z,14.10
2017-10-10T08:35:57.790Z,14.20
2017-10-10T08:38:25.269Z,14.10
2017-10-10T08:40:53.107Z,14.20
2017-10-10T08:43:20.605Z,14.20
2017-10-10T08:45:48.069Z,14.30
2017-10-10T08:48:16.299Z,14.50
2017-10-10T08:50:43.778Z,14.50
2017-10-10T08:53:11.237Z,14.60
2017-10-10T08:55:38.812Z,14.60
2017-10-10T08:58:06.271Z,14.70
2017-10-10T09:00:33.746Z,14.70
2017-10-10T09:03:01.982Z,14.70
2017-10-10T09:05:29.469Z,14.70
2017-10-10T09:07:56.933Z,14.60
2017-10-10T09:10:25.200Z,14.50
2017-10-10T09:12:53.372Z,14.50
2017-10-10T09:15:20.909Z,14.60
2017-10-10T09:17:48.393Z,14.60
2017-10-10T09:20:15.859Z,14.60
2017-10-10T09:22:44.337Z,14.70
2017-10-10T09:25:12.553Z,14.80
2017-10-10T09:27:40.028Z,14.80
2017-10-10T09:30:07.505Z,14.90
2017-10-10T09:32:34.977Z,15.00
2017-10-10T09:35:02.607Z,15.10
2017-10-10T09:37:30.071Z,15.20
2017-10-10T09:39:57.556Z,15.20
2017-10-10T09:42:25.024Z,15.10
2017-10-10T09:44:53.257Z,15.20
2017-10-10T09:47:20.734Z,15.10
2017-10-10T09:49:48.257Z,15.10
2017-10-10T09:52:15.726Z,15.10
2017-10-10T09:54:43.269Z,15.10
2017-10-10T09:57:10.746Z,15.10
2017-10-10T09:59:38.229Z,15.10
2017-10-10T10:02:06.457Z,15.30
2017-10-10T10:04:33.941Z,15.20
2017-10-10T10:07:01.415Z,15.40
2017-10-10T10:09:28.895Z,15.50
2017-10-10T10:11:57.139Z,15.60
2017-10-10T10:14:24.649Z,15.60
2017-10-10T10:16:52.230Z,15.50
2017-10-10T10:19:19.705Z,15.50
2017-10-10T10:21:47.178Z,15.50
2017-10-10T10:24:14.730Z,15.50
2017-10-10T10:26:42.186Z,15.50
2017-10-10T10:29:09.830Z,15.40
2017-10-10T10:31:37.313Z,15.40
2017-10-10T10:34:04.776Z,15.30
2017-10-10T10:36:33.035Z,15.30
2017-10-10T10:39:01.263Z,15.30
2017-10-10T10:41:28.744Z,15.30
2017-10-10T10:43:56.217Z,15.30
2017-10-10T10:46:23.706Z,15.40
2017-10-10T10:48:51.929Z,15.50
2017-10-10T10:51:35.373Z,15.50
2017-10-10T10:54:11.372Z,15.50
2017-10-10T10:56:46.137Z,15.40
2017-10-10T10:59:14.019Z,15.40
2017-10-10T11:01:48.366Z,15.40
2017-10-10T11:04:28.085Z,15.40
2017-10-10T11:06:57.470Z,15.40
2017-10-10T11:09:32.758Z,15.50
2017-10-10T11:12:07.176Z,15.60
2017-10-10T11:14:39.286Z,15.60
2017-10-10T11:17:06.757Z,15.70
2017-10-10T11:19:44.195Z,15.60
2017-10-10T11:22:16.023Z,15.60
2017-10-10T11:24:48.091Z,15.60
2017-10-10T11:27:15.761Z,15.60
2017-10-10T11:30:01.855Z,15.60
2017-10-10T11:32:52.847Z,15.70
2017-10-10T11:35:38.308Z,15.80
2017-10-10T11:38:16.004Z,15.90
2017-10-10T11:40:45.119Z,15.90
2017-10-10T11:43:20.516Z,15.90
2017-10-10T11:45:53.528Z,15.90
2017-10-10T11:48:22.649Z,15.90
2017-10-10T11:50:56.369Z,16.10
2017-10-10T11:53:27.239Z,16.10
2017-10-10T11:55:56.772Z,16.30
2017-10-10T11:58:29.858Z,16.90
2017-10-10T12:01:08.986Z,16.80
2017-10-10T12:03:43.986Z,16.60
2017-10-10T12:06:13.436Z,16.40
2017-10-10T12:08:45.029Z,16.40
2017-10-10T12:11:19.268Z,16.20
2017-10-10T12:13:46.768Z,16.20
2017-10-10T12:16:23.344Z,16.20
2017-10-10T12:18:51.109Z,16.10
2017-10-10T12:21:29.054Z,16.10
2017-10-10T12:24:20.789Z,16.10
2017-10-10T12:26:58.729Z,16.20
2017-10-10T12:29:32.131Z,16.20
2017-10-10T12:32:07.845Z,16.20
2017-10-10T12:34:54.996Z,16.30
2017-10-10T12:37:28.363Z,16.30
2017-10-10T12:39:58.996Z,16.30
2017-10-10T12:42:26.786Z,16.20
2017-10-10T12:45:15.560Z,16.30
2017-10-10T12:47:46.398Z,16.20
2017-10-10T12:50:15.491Z,16.20
2017-10-10T12:52:42.966Z,16.20
2017-10-10T12:55:11.226Z,16.20
2017-10-10T12:57:38.684Z,16.20
2017-10-10T13:00:06.172Z,16.20
2017-10-10T13:02:33.648Z,16.20
2017-10-10T13:05:01.116Z,16.20
2017-10-10T13:07:28.607Z,16.10
2017-10-10T13:09:56.075Z,16.10
2017-10-10T13:12:24.347Z,15.90
2017-10-10T13:14:51.826Z,15.90
2017-10-10T13:17:20.048Z,15.90
2017-10-10T13:19:47.543Z,15.90
2017-10-10T13:22:15.795Z,15.80
2017-10-10T13:24:43.270Z,15.80
2017-10-10T13:27:11.497Z,15.80
2017-10-10T13:29:39.000Z,15.70
2017-10-10T13:32:07.229Z,15.70
2017-10-10T13:34:34.817Z,15.70
2017-10-10T13:37:02.276Z,15.70
2017-10-10T13:39:29.756Z,15.70
2017-10-10T13:41:58.015Z,15.70
2017-10-10T13:44:27.055Z,15.70
2017-10-10T13:46:54.685Z,15.70
2017-10-10T13:49:23.029Z,15.80
2017-10-10T13:51:50.505Z,15.70
2017-10-10T13:54:17.964Z,15.80
2017-10-10T13:56:45.450Z,15.80
2017-10-10T13:59:15.272Z,15.70
2017-10-10T14:01:47.403Z,15.70
2017-10-10T14:04:19.101Z,15.80
2017-10-10T14:06:48.150Z,15.80
2017-10-10T14:09:18.118Z,15.80
2017-10-10T14:11:47.383Z,15.70
2017-10-10T14:14:15.629Z,15.70
2017-10-10T14:16:43.140Z,15.70
2017-10-10T14:19:10.629Z,15.80
2017-10-10T14:21:38.238Z,15.70
2017-10-10T14:24:05.746Z,15.80
2017-10-10T14:26:33.334Z,15.80
2017-10-10T14:29:01.583Z,15.90
2017-10-10T14:31:29.091Z,15.80
2017-10-10T14:33:56.724Z,15.80
2017-10-10T14:36:24.207Z,15.90
2017-10-10T14:38:51.770Z,15.90
2017-10-10T14:41:19.244Z,16.00
2017-10-10T14:43:46.804Z,16.10
2017-10-10T14:46:14.297Z,16.20
2017-10-10T14:48:41.763Z,16.30
2017-10-10T14:51:10.753Z,16.30
2017-10-10T14:53:38.238Z,16.30
2017-10-10T14:56:06.540Z,16.30
2017-10-10T14:58:34.026Z,16.30
2017-10-10T15:01:01.492Z,16.30
2017-10-10T15:03:28.998Z,16.30
2017-10-10T15:05:56.466Z,16.30
2017-10-10T15:08:23.952Z,16.30
2017-10-10T15:10:51.421Z,16.30
2017-10-10T15:13:18.905Z,16.20
2017-10-10T15:15:47.152Z,16.20
2017-10-10T15:18:14.883Z,16.20
2017-10-10T15:20:42.349Z,16.20
2017-10-10T15:23:09.836Z,16.20
2017-10-10T15:25:37.320Z,16.20
2017-10-10T15:28:05.553Z,16.10
2017-10-10T15:30:33.027Z,16.10
2017-10-10T15:33:00.493Z,16.10
2017-10-10T15:35:27.984Z,16.10
2017-10-10T15:37:55.440Z,16.10
2017-10-10T15:40:22.940Z,16.10
2017-10-10T15:42:50.399Z,16.00
2017-10-10T15:45:17.954Z,16.10
2017-10-10T15:47:46.183Z,16.00
2017-10-10T15:50:13.685Z,16.10
2017-10-10T15:52:41.789Z,16.10
2017-10-10T15:55:09.536Z,16.00
2017-10-10T15:57:37.073Z,16.00
2017-10-10T16:00:04.537Z,16.00
2017-10-10T16:02:32.032Z,16.00
2017-10-10T16:05:00.263Z,16.00
2017-10-10T16:07:27.781Z,16.00
2017-10-10T16:09:55.237Z,16.00
2017-10-10T16:12:22.709Z,16.00
2017-10-10T16:14:50.374Z,16.00
2017-10-10T16:17:17.840Z,16.00
2017-10-10T16:19:45.425Z,16.00
2017-10-10T16:22:13.155Z,16.00
2017-10-10T16:24:40.641Z,15.90
2017-10-10T16:27:08.121Z,16.00
2017-10-10T16:29:36.393Z,16.00
2017-10-10T16:32:03.877Z,15.90
2017-10-10T16:34:31.370Z,15.90
2017-10-10T16:36:58.887Z,16.00
2017-10-10T16:39:27.192Z,15.90
2017-10-10T16:41:54.650Z,15.90
2017-10-10T16:44:22.151Z,15.90
2017-10-10T16:46:49.630Z,15.90
2017-10-10T16:49:17.895Z,15.90
2017-10-10T16:51:45.361Z,15.80
2017-10-10T16:54:13.621Z,15.80
2017-10-10T16:56:41.122Z,15.80
2017-10-10T16:59:08.648Z,15.80
2017-10-10T17:01:36.116Z,15.70
2017-10-10T17:04:04.345Z,15.70
2017-10-10T17:06:31.857Z,15.70
2017-10-10T17:08:59.330Z,15.70
2017-10-10T17:11:26.919Z,15.70
2017-10-10T17:13:54.387Z,15.70
2017-10-10T17:16:21.937Z,15.70
2017-10-10T17:18:49.401Z,15.70
2017-10-10T17:21:17.050Z,15.70
2017-10-10T17:23:56.133Z,15.70
2017-10-10T17:26:26.501Z,15.70
2017-10-10T17:29:08.106Z,15.70
2017-10-10T17:34:50.562Z,15.70
2017-10-10T17:37:36.143Z,15.60
2017-10-10T17:40:04.318Z,15.60
2017-10-10T17:42:45.903Z,15.60
2017-10-10T17:45:32.608Z,15.60
2017-10-10T17:48:02.477Z,15.60
2017-10-10T17:50:30.947Z,15.60
2017-10-10T17:55:36.094Z,15.60
2017-10-10T17:58:18.971Z,15.60
2017-10-10T18:01:04.503Z,15.60
2017-10-10T18:03:36.299Z,15.60
2017-10-10T18:06:13.923Z,15.60
2017-10-10T18:08:49.337Z,15.60
2017-10-10T18:11:21.622Z,15.60
2017-10-10T18:13:58.953Z,15.60
2017-10-10T18:16:26.780Z,15.50
2017-10-10T18:18:54.331Z,15.60
2017-10-10T18:21:22.570Z,15.50
2017-10-10T18:23:50.065Z,15.50
2017-10-10T18:26:18.316Z,15.60
2017-10-10T18:28:45.789Z,15.50
2017-10-10T18:31:14.077Z,15.50
2017-10-10T18:33:47.436Z,15.50
2017-10-10T18:36:20.570Z,15.50
2017-10-10T18:38:55.748Z,15.50
2017-10-10T18:41:38.887Z,15.50
2017-10-10T18:44:13.122Z,15.50
2017-10-10T18:46:49.196Z,15.40
2017-10-10T18:49:17.370Z,15.50
2017-10-10T18:51:45.605Z,15.50
2017-10-10T18:54:13.101Z,15.40
2017-10-10T18:56:40.663Z,15.50
2017-10-10T18:59:08.938Z,15.50
2017-10-10T19:01:41.206Z,15.50
2017-10-10T19:04:09.966Z,15.40
2017-10-10T19:06:49.241Z,15.40
2017-10-10T19:09:18.246Z,15.40
2017-10-10T19:11:51.049Z,15.40
2017-10-10T19:14:27.322Z,15.40
2017-10-10T19:16:59.379Z,15.40
2017-10-10T19:19:35.014Z,15.40
2017-10-10T19:22:15.305Z,15.40
2017-10-10T19:24:47.014Z,15.40
2017-10-10T19:27:26.162Z,15.40
2017-10-10T19:29:59.869Z,15.40
2017-10-10T19:32:27.337Z,15.40
2017-10-10T19:34:55.492Z,15.40
2017-10-10T19:37:26.350Z,15.40
2017-10-10T19:39:56.987Z,15.40
2017-10-10T19:42:28.032Z,15.40
2017-10-10T19:45:02.413Z,15.40
2017-10-10T19:53:02.196Z,15.40
2017-10-10T19:55:29.925Z,15.40
2017-10-10T19:57:57.410Z,15.40
2017-10-10T20:00:24.903Z,15.40
2017-10-10T20:02:57.704Z,15.40
2017-10-10T20:05:30.724Z,15.40
2017-10-10T20:07:58.268Z,15.30
2017-10-10T20:10:25.733Z,15.30
2017-10-10T20:12:53.286Z,15.30
2017-10-10T20:15:20.885Z,15.40
2017-10-10T20:17:48.372Z,15.30
2017-10-10T20:20:16.594Z,15.30
2017-10-10T20:22:44.085Z,15.30
2017-10-10T20:25:12.349Z,15.30
2017-10-10T20:27:39.833Z,15.30
2017-10-10T20:30:07.321Z,15.30
2017-10-10T20:32:34.805Z,15.30
2017-10-10T20:35:02.394Z,15.30
2017-10-10T20:37:30.741Z,15.30
2017-10-10T20:39:58.279Z,15.30
2017-10-10T20:42:25.766Z,15.30
2017-10-10T20:44:53.290Z,15.30
2017-10-10T20:47:20.765Z,15.30
2017-10-10T20:49:48.281Z,15.30
2017-10-10T20:52:15.734Z,15.30
2017-10-10T20:54:43.227Z,15.30
2017-10-10T20:57:10.698Z,15.30
2017-10-10T20:59:38.173Z,15.30
2017-10-10T21:02:05.706Z,15.30
2017-10-10T21:04:33.212Z,15.30
2017-10-10T21:07:01.466Z,15.30
2017-10-10T21:09:28.951Z,15.30
2017-10-10T21:11:56.433Z,15.30
2017-10-10T21:14:23.899Z,15.30
2017-10-10T21:16:51.381Z,15.30
2017-10-10T21:19:18.901Z,15.30
2017-10-10T21:21:46.363Z,15.20
2017-10-10T21:24:14.601Z,15.20
2017-10-10T21:26:42.842Z,15.20
2017-10-10T21:29:10.489Z,15.10
2017-10-10T21:31:37.970Z,15.10
2017-10-10T21:34:05.435Z,15.10
2017-10-10T21:36:33.045Z,15.10
2017-10-10T21:39:00.541Z,15.10
2017-10-10T21:41:27.994Z,15.00
2017-10-10T21:43:55.472Z,15.00
2017-10-10T21:46:23.716Z,15.00
2017-10-10T21:48:51.177Z,14.90
2017-10-10T21:51:18.667Z,14.90
2017-10-10T21:53:46.903Z,14.80
2017-10-10T21:56:14.369Z,14.80
2017-10-10T21:58:41.840Z,14.80
2017-10-10T22:01:10.209Z,14.80
2017-10-10T22:03:37.754Z,14.70
2017-10-10T22:06:05.233Z,14.70
2017-10-10T22:08:33.462Z,14.80
2017-10-10T22:11:00.937Z,14.80
2017-10-10T22:13:28.401Z,14.80
2017-10-10T22:15:55.880Z,14.80
2017-10-10T22:18:23.341Z,14.80
2017-10-10T22:20:51.564Z,14.70
2017-10-10T22:23:19.038Z,14.70
2017-10-10T22:25:46.552Z,14.70
2017-10-10T22:28:14.037Z,14.80
2017-10-10T22:30:41.521Z,14.80
2017-10-10T22:33:09.001Z,14.80
2017-10-10T22:35:37.225Z,14.80
2017-10-10T22:38:04.709Z,14.70
2017-10-10T22:40:32.193Z,14.80
2017-10-10T22:43:00.420Z,14.80
2017-10-10T22:45:27.906Z,14.80
2017-10-10T22:47:55.371Z,14.80
2017-10-10T22:50:22.845Z,14.80
2017-10-10T22:52:51.177Z,14.80
2017-10-10T22:55:18.666Z,14.80
2017-10-10T22:57:46.129Z,14.80
2017-10-10T23:00:14.202Z,14.70
2017-10-10T23:02:42.451Z,14.70
2017-10-10T23:05:09.925Z,14.70
2017-10-10T23:07:37.405Z,14.70
2017-10-10T23:10:05.646Z,14.70
2017-10-10T23:12:33.130Z,14.70
2017-10-10T23:15:01.364Z,14.70
2017-10-10T23:17:28.841Z,14.70
2017-10-10T23:19:57.077Z,14.70
2017-10-10T23:22:24.550Z,14.70
2017-10-10T23:24:52.074Z,14.70
2017-10-10T23:27:19.544Z,14.70
2017-10-10T23:29:47.006Z,14.70
2017-10-10T23:32:14.478Z,14.70
2017-10-10T23:34:41.957Z,14.70
2017-10-10T23:37:09.423Z,14.80
2017-10-10T23:39:38.395Z,14.70
2017-10-10T23:42:06.495Z,14.70
2017-10-10T23:44:34.740Z,14.70
2017-10-10T23:47:02.217Z,14.70
2017-10-10T23:49:31.291Z,14.70
2017-10-10T23:51:58.762Z,14.70
2017-10-10T23:54:26.255Z,14.70
2017-10-10T23:56:53.857Z,14.70
2017-10-10T23:59:21.317Z,14.70
